Abbotsford International Airport

CYXX · Colombie-Britannique, Canada

METAR anciennes CYXX · Abbotsford Airport

Tu vois ci-dessous les METAR des derniers jours. Sélectionne une année pour parcourir les METAR plus anciens, à partir de l'année 2007.

5 décembre 2022

Temps Code Temps Temp. Vue Base cloud Vent METAR/SPECI
19:00
V
-1 °C 10 mi 4.200 ft 040° 040° 3 kt METAR CYXX 060300Z 04003KT 10SM FEW008 SCT028 OVC042 M01/M05 A3004 RMK ST1SC3SC4 SLP177
19:00
V
-1 °C 10 mi 4.200 ft 040° 040° 3 kt METAR CYXX 060300Z 04003KT 10SM FEW008 SCT028 OVC042 M01/M05 A3004 RMK ST1SC3SC4 SLP177
18:00
V
0 °C 10 mi 3.900 ft 080° 080° 2 kt METAR CYXX 060200Z 08002KT 10SM FEW008 SCT028 OVC039 M00/M05 A3004 RMK ST1SC3SC4 SLP176
17:00
V
0 °C 10 mi 3.300 ft 010° 010° 2 kt METAR CYXX 060100Z 01002KT 10SM FEW008 OVC033 M00/M05 A3004 RMK ST2SC6 SLP177
16:23
V
0 °C 15 mi 3.500 ft Var 000° 0 kt METAR CYXX 060023Z 00000KT 15SM FEW013 OVC035 M00/M06 A3004 RMK ST2SC6 SLP176
16:00
V
0 °C 20 mi 3.600 ft Var 000° 0 kt METAR CYXX 060000Z 00000KT 20SM OVC036 M00/M06 A3004 RMK SC8 SLP177
15:00
V
0 °C 25 mi 4.200 ft 040° 040° 3 kt METAR CYXX 052300Z 04003KT 030V100 25SM SCT035 BKN042 00/M06 A3002 RMK SC4SC3 SLP172
14:00
V
0 °C 30 mi - Var 000° 0 kt METAR CYXX 052200Z 00000KT 30SM FEW046 00/M07 A3002 RMK SC2 SLP171
13:00
V
0 °C 30 mi - 340° 340° 2 kt METAR CYXX 052100Z 34002KT 30SM FEW046 00/M07 A3003 RMK SC1 SC TR SLP174
12:00
V
-1 °C 30 mi - 340° 340° 4 kt METAR CYXX 052000Z 34004KT 30SM SCT046 M01/M07 A3004 RMK SC4 SLP177
11:00
V
-2 °C 30 mi - 360° 360° 3 kt METAR CYXX 051900Z 36003KT 30SM FEW150 M02/M08 A3005 RMK AC1 AC TR SLP181
10:00
V
-4 °C 30 mi - 030° 030° 3 kt METAR CYXX 051800Z 03003KT 30SM FEW150 M04/M09 A3005 RMK AC1 AC TR SLP181
09:00
V
-5 °C 30 mi - 020° 020° 3 kt METAR CYXX 051700Z 02003KT 30SM FEW150 M05/M09 A3005 RMK AC1 AC TR SLP181
08:00
V
-9 °C 30 mi - 020° 020° 4 kt METAR CYXX 051600Z 02004KT 30SM FEW150 M09/M11 A3005 RMK AC1 AC TR SLP180
07:00
V
-8 °C 30 mi - 020° 020° 3 kt METAR CYXX 051500Z 02003KT 30SM FEW150 M08/M11 A3004 RMK AC1 AC TR FROIN SLP178
06:00
V
-7 °C 15 mi - 330° 330° 3 kt METAR CYXX 051400Z 33003KT 15SM FEW150 M07/M11 A3004 RMK AC1 FROIN SLP178
05:00
V
-8 °C 15 mi - 320° 320° 3 kt METAR CYXX 051300Z 32003KT 15SM FEW150 M08/M11 A3004 RMK AC1 AC TR FROIN SLP178
04:00
V
-8 °C 15 mi - 340° 340° 4 kt METAR CYXX 051200Z 34004KT 15SM SKC M08/M11 A3004 RMK SLP179
03:00
V
-7 °C 15 mi - 350° 350° 4 kt METAR CYXX 051100Z 35004KT 15SM SKC M07/M09 A3004 RMK SLP178
02:00
V
-6 °C 15 mi - 360° 360° 4 kt METAR CYXX 051000Z 36004KT 15SM SKC M06/M09 A3004 RMK SLP177
01:00
V
-5 °C 15 mi - 350° 350° 4 kt METAR CYXX 050900Z 35004KT 15SM SKC M05/M09 A3004 RMK SLP177
00:00
V
-7 °C 15 mi - 010° 010° 5 kt METAR CYXX 050800Z 01005KT 15SM SKC M07/M10 A3004 RMK SLP178

4 décembre 2022

Temps Code Temps Temp. Vue Base cloud Vent METAR/SPECI
23:00
V
-7 °C 15 mi - 010° 010° 4 kt METAR CYXX 050700Z 01004KT 15SM SKC M07/M09 A3004 RMK SLP176
22:00
V
-6 °C 15 mi - 360° 360° 2 kt METAR CYXX 050600Z 36002KT 15SM SKC M06/M09 A3003 RMK SLP173
21:00
V
-5 °C 15 mi - Var Var 2 kt METAR CYXX 050500Z VRB02KT 15SM SKC M05/M09 A3001 RMK SLP169
20:00
V
-4 °C 15 mi - 030° 030° 4 kt METAR CYXX 050400Z 03004KT 330V060 15SM SKC M04/M08 A3001 RMK SLP166
19:00
V
-3 °C 15 mi - 010° 010° 4 kt METAR CYXX 050300Z 01004KT 15SM FEW160 M03/M09 A3000 RMK AC1 AC TR SLP164
18:00
V
-5 °C 15 mi - 340° 340° 5 kt METAR CYXX 050200Z 34005KT 15SM FEW160 M05/M09 A2999 RMK AC1 AC TR SLP162
17:00
V
-5 °C 15 mi - 050° 050° 3 kt METAR CYXX 050100Z 05003KT 360V120 15SM FEW160 M05/M10 A2999 RMK AC1 AC TR SLP161
16:00
V
1 °C 30 mi - 070° 070° 3 kt METAR CYXX 050000Z 07003KT 060V140 30SM FEW180 01/M09 A2998 RMK AC1 AC TR SLP156
15:00
V
2 °C 30 mi - Var 000° 0 kt METAR CYXX 042300Z 00000KT 30SM FEW180 02/M09 A2996 RMK AC1 AC TR SLP151
14:00
V
1 °C 30 mi - 010° 010° 7 kt METAR CYXX 042200Z 01007KT 30SM FEW180 01/M07 A2996 RMK AC1 SLP149
13:00
V
2 °C 30 mi - 060° 060° 3 kt METAR CYXX 042100Z 06003KT 360V120 30SM FEW180 02/M08 A2996 RMK AC1 AC TR SLP150
12:00
V
2 °C 30 mi - 040° 040° 7 kt METAR CYXX 042000Z 04007KT 30SM FEW150 FEW160 02/M08 A2997 RMK AC1AC1 AC TR SLP154
11:00
V
0 °C 30 mi - 020° 020° 11 kt METAR CYXX 041900Z 02011KT 30SM FEW150 00/M08 A2999 RMK AC1 SLP160
10:00
V
-1 °C 30 mi - 360° 360° 2 kt METAR CYXX 041800Z 36002KT 30SM FEW150 M01/M08 A3001 RMK AC1 SLP166
09:00
V
-3 °C 30 mi - 020° 020° 6 kt METAR CYXX 041700Z 02006KT 30SM FEW150 M03/M09 A3001 RMK AC1 AC TR SLP167
08:00
V
-4 °C 30 mi - 020° 020° 8 kt METAR CYXX 041600Z 02008KT 30SM FEW150 FEW220 M04/M09 A3001 RMK AC1CI1 CI TR SLP168
07:00
V
-3 °C 30 mi - 030° 030° 7 kt METAR CYXX 041500Z 03007KT 30SM FEW220 M03/M09 A3001 RMK CI1 CI TR SLP169
06:00
V
-2 °C 15 mi - 050° 050° 6 kt METAR CYXX 041400Z 05006KT 15SM SKC M02/M08 A3002 RMK SLP171
05:00
V
-1 °C 15 mi - 050° 050° 8 kt METAR CYXX 041300Z 05008KT 15SM SKC M01/M09 A3004 RMK SLP179
04:00
V
-2 °C 15 mi - 010° 010° 3 kt METAR CYXX 041200Z 01003KT 010V070 15SM SKC M02/M09 A3007 RMK SLP189
03:00
V
-5 °C 15 mi - 020° 020° 6 kt METAR CYXX 041100Z 02006KT 15SM SKC M05/M10 A3010 RMK SLP199
02:00
V
-2 °C 15 mi - 030° 030° 4 kt METAR CYXX 041000Z 03004KT 15SM SKC M02/M10 A3012 RMK SLP206
01:00
V
0 °C 15 mi - 060° 060° 10 kt METAR CYXX 040900Z 06010KT 15SM SKC M00/M09 A3014 RMK SLP211
00:00
V
-1 °C 15 mi - 050° 050° 7 kt METAR CYXX 040800Z 05007KT 15SM SKC M01/M08 A3016 RMK SLP217

3 décembre 2022

Temps Code Temps Temp. Vue Base cloud Vent METAR/SPECI
23:00
V
-4 °C 15 mi - 350° 350° 4 kt METAR CYXX 040700Z 35004KT 330V050 15SM SKC M04/M09 A3016 RMK SLP219
22:00
V
-4 °C 15 mi - 360° 360° 3 kt METAR CYXX 040600Z 36003KT 270V040 15SM SKC M04/M08 A3017 RMK SLP222
21:00
V
-2 °C 15 mi - 060° 060° 5 kt METAR CYXX 040500Z 06005KT 15SM SKC M02/M08 A3018 RMK SLP226
20:00
V
-3 °C 15 mi - 040° 040° 3 kt METAR CYXX 040400Z 04003KT 010V090 15SM SKC M03/M09 A3019 RMK SLP227
19:00
V
-3 °C 15 mi - Var Var 2 kt METAR CYXX 040300Z VRB02KT 15SM SKC M03/M08 A3019 RMK SLP228
18:00
V
-2 °C 15 mi - Var 000° 0 kt METAR CYXX 040200Z 00000KT 15SM SKC M02/M09 A3017 RMK SLP223
17:00
V
-2 °C 15 mi - 030° 030° 2 kt METAR CYXX 040100Z 03002KT 15SM FEW220 M02/M08 A3018 RMK CI2 SLP225
16:00
V
0 °C 30 mi - 080° 080° 8 kt METAR CYXX 040000Z 08008KT 30SM FEW100 SCT220 00/M09 A3017 RMK AC1CI3 AC TR SLP223
15:00
V
1 °C 30 mi 21.000 ft Var 000° 0 kt METAR CYXX 032300Z 00000KT 30SM BKN210 01/M07 A3017 RMK CI5 SLP223
14:00
V
1 °C 30 mi - 070° 070° 9 kt METAR CYXX 032200Z 07009KT 30SM SCT230 01/M09 A3019 RMK CI3 SLP227
13:00
V
0 °C 30 mi - 080° 080° 10 kt METAR CYXX 032100Z 08010KT 30SM FEW050 FEW210 M00/M09 A3019 RMK SC1CI1 CI TR SLP228
12:00
V
0 °C 30 mi - 070° 070° 6 kt METAR CYXX 032000Z 07006KT 30SM FEW065 M00/M09 A3021 RMK SC2 SLP234
11:00
V
-1 °C 30 mi - 080° 080° 7 kt METAR CYXX 031900Z 08007KT 30SM SCT063 M01/M09 A3022 RMK SC4 SLP237
10:00
V
-1 °C 30 mi - 060° 060° 9 kt METAR CYXX 031800Z 06009KT 30SM SCT057 M01/M10 A3020 RMK SC3 SLP231
09:00
V
-2 °C 30 mi 5.700 ft 070° 070° 8 kt METAR CYXX 031700Z 07008KT 30SM BKN057 BKN210 M02/M10 A3018 RMK SC5CI1 SLP224
08:00
V
-3 °C 30 mi 6.000 ft 070° 070° 9 kt METAR CYXX 031600Z 07009KT 30SM BKN060 M03/M10 A3016 RMK SC6 SLP217
07:00
V
-2 °C 20 mi 4.600 ft 070° 070° 5 kt METAR CYXX 031500Z 07005KT 20SM BKN046 M02/M09 A3015 RMK SC7 SLP213
06:00
V
-2 °C 13 mi 4.600 ft 070° 070° 9 kt METAR CYXX 031400Z 07009KT 13SM BKN046 OVC058 M02/M10 A3013 RMK SC5SC3 VIRGA SLP207
05:00
V
-3 °C 13 mi 4.400 ft 070° 070° 9 kt METAR CYXX 031300Z 07009KT 13SM OVC044 M03/M10 A3012 RMK SC8 VIRGA SLP206
04:00
V
-3 °C 13 mi 4.200 ft 070° 070° 10 kt METAR CYXX 031200Z 07010KT 13SM BKN042 BKN053 OVC063 M03/M10 A3010 RMK SC5SC2SC1 VIRGA SLP198
03:00
V
-2 °C 15 mi 4.000 ft 050° 050° 6 kt METAR CYXX 031100Z 05006KT 15SM BKN040 OVC074 M02/M09 A3009 RMK SC5AS3 SLP196
02:00
V
-2 °C 15 mi 7.200 ft 070° 070° 7 kt METAR CYXX 031000Z 07007KT 020V090 15SM SCT060 OVC072 M02/M09 A3008 RMK SC3AS5 SLP191

Nous et des tiers suivons ton comportement Internet sur notre site Web à l'aide de cookies. Si tu continues, nous supposons que tu es d'accord avec notre Politique en matière de cookies.